createdAt,value
2022-10-05T00:00:58.547Z,65.70
2022-10-05T00:03:28.408Z,65.80
2022-10-05T00:05:55.586Z,65.90
2022-10-05T00:08:25.649Z,66.10
2022-10-05T00:10:54.161Z,66.20
2022-10-05T00:13:25.498Z,66.10
2022-10-05T00:16:17.793Z,66.00
2022-10-05T00:18:53.903Z,66.10
2022-10-05T00:21:27.460Z,65.90
2022-10-05T00:23:57.854Z,65.80
2022-10-05T00:26:33.639Z,65.80
2022-10-05T00:29:05.777Z,65.90
2022-10-05T00:31:36.034Z,65.80
2022-10-05T00:34:03.175Z,65.80
2022-10-05T00:36:30.545Z,65.80
2022-10-05T00:39:00.778Z,65.90
2022-10-05T00:41:50.374Z,65.90
2022-10-05T00:44:38.244Z,66.20
2022-10-05T00:47:28.660Z,66.20
2022-10-05T00:50:21.619Z,66.80
2022-10-05T00:53:25.748Z,66.00
2022-10-05T00:56:23.971Z,66.70
2022-10-05T00:59:07.705Z,66.40
2022-10-05T01:02:01.372Z,66.10
2022-10-05T01:04:51.145Z,66.20
2022-10-05T01:07:46.245Z,66.40
2022-10-05T01:10:18.886Z,66.40
2022-10-05T01:13:18.303Z,66.30
2022-10-05T01:16:10.480Z,67.30
2022-10-05T01:19:22.754Z,67.50
2022-10-05T01:22:01.569Z,67.20
2022-10-05T01:24:49.122Z,66.70
2022-10-05T01:27:38.767Z,67.00
2022-10-05T01:30:20.951Z,66.90
2022-10-05T01:33:21.583Z,67.00
2022-10-05T01:36:18.791Z,67.30
2022-10-05T01:39:17.586Z,66.80
2022-10-05T01:42:29.656Z,66.90
2022-10-05T01:45:09.757Z,67.00
2022-10-05T01:47:46.212Z,66.90
2022-10-05T01:50:36.782Z,66.80
2022-10-05T01:54:04.457Z,67.70
2022-10-05T01:56:58.757Z,67.70
2022-10-05T01:59:41.972Z,67.30
2022-10-05T02:02:17.904Z,67.00
2022-10-05T02:05:02.091Z,66.90
2022-10-05T02:07:41.724Z,66.80
2022-10-05T02:10:33.674Z,66.90
2022-10-05T02:13:39.036Z,67.80
2022-10-05T02:16:21.715Z,67.80
2022-10-05T02:19:22.457Z,67.40
2022-10-05T02:21:56.879Z,67.80
2022-10-05T02:24:30.190Z,67.10
2022-10-05T02:26:58.212Z,67.20
2022-10-05T02:29:30.957Z,67.30
2022-10-05T02:32:15.782Z,67.50
2022-10-05T02:34:44.116Z,67.50
2022-10-05T02:37:43.353Z,67.40
2022-10-05T02:40:25.918Z,68.20
2022-10-05T02:43:10.820Z,67.70
2022-10-05T02:45:56.037Z,67.30
2022-10-05T02:48:56.400Z,67.30
2022-10-05T02:51:30.150Z,67.40
2022-10-05T02:54:18.937Z,67.30
2022-10-05T02:57:01.114Z,67.70
2022-10-05T02:59:48.269Z,67.20
2022-10-05T03:02:56.446Z,67.30
2022-10-05T03:05:53.179Z,67.70
2022-10-05T03:08:35.838Z,68.10
2022-10-05T03:11:24.407Z,68.00
2022-10-05T03:14:39.622Z,68.00
2022-10-05T03:17:21.596Z,68.00
2022-10-05T03:20:04.344Z,68.20
2022-10-05T03:23:04.759Z,68.40
2022-10-05T03:25:55.810Z,68.80
2022-10-05T03:28:45.003Z,68.20
2022-10-05T03:31:35.669Z,67.90
2022-10-05T03:34:13.006Z,68.30
2022-10-05T03:36:49.590Z,68.00
2022-10-05T03:39:34.675Z,68.00
2022-10-05T03:42:44.607Z,68.40
2022-10-05T03:45:36.627Z,68.90
2022-10-05T03:48:10.218Z,69.00
2022-10-05T03:50:55.905Z,69.40
2022-10-05T03:53:30.142Z,68.30
2022-10-05T03:56:20.273Z,68.20
2022-10-05T03:59:12.289Z,68.40
2022-10-05T04:01:44.430Z,68.90
2022-10-05T04:04:20.028Z,69.70
2022-10-05T04:06:50.792Z,69.30
2022-10-05T04:09:27.735Z,68.00
2022-10-05T04:12:36.839Z,68.40
2022-10-05T04:15:18.976Z,69.30
2022-10-05T04:18:04.361Z,68.50
2022-10-05T04:20:43.443Z,68.90
2022-10-05T04:23:10.659Z,68.60
2022-10-05T04:25:48.357Z,68.70
2022-10-05T04:28:52.982Z,68.80
2022-10-05T04:31:46.149Z,68.80
2022-10-05T04:35:11.107Z,69.60
2022-10-05T04:38:20.993Z,70.30
2022-10-05T04:41:20.087Z,69.00
2022-10-05T04:44:12.137Z,69.50
2022-10-05T04:46:57.189Z,69.00
2022-10-05T04:50:11.987Z,70.00
2022-10-05T04:53:05.448Z,68.90
2022-10-05T04:55:58.351Z,68.80
2022-10-05T04:58:55.894Z,68.90
2022-10-05T05:01:59.414Z,69.30
2022-10-05T05:05:08.345Z,69.70
2022-10-05T05:07:49.971Z,69.50
2022-10-05T05:10:19.834Z,69.30
2022-10-05T05:14:07.948Z,68.90
2022-10-05T05:16:43.653Z,69.70
2022-10-05T05:19:22.960Z,68.70
2022-10-05T05:22:16.392Z,69.00
2022-10-05T05:25:11.239Z,69.30
2022-10-05T05:27:55.113Z,68.80
2022-10-05T05:30:44.122Z,68.90
2022-10-05T05:33:39.839Z,68.90
2022-10-05T05:36:36.002Z,69.70
2022-10-05T05:39:24.797Z,69.40
2022-10-05T05:42:31.044Z,69.40
2022-10-05T05:45:09.066Z,70.50
2022-10-05T05:47:41.312Z,69.50
2022-10-05T05:51:12.208Z,69.60
2022-10-05T05:53:49.521Z,70.70
2022-10-05T05:56:40.421Z,69.80
2022-10-05T05:59:18.510Z,70.80
2022-10-05T06:02:03.798Z,70.10
2022-10-05T06:05:21.175Z,70.10
2022-10-05T06:07:48.281Z,70.80
2022-10-05T06:10:38.386Z,69.90
2022-10-05T06:13:35.449Z,70.10
2022-10-05T06:16:22.285Z,70.30
2022-10-05T06:19:14.826Z,70.20
2022-10-05T06:22:12.430Z,71.00
2022-10-05T06:24:57.934Z,70.40
2022-10-05T06:27:36.734Z,70.30
2022-10-05T06:30:08.379Z,70.50
2022-10-05T06:32:50.202Z,70.40
2022-10-05T06:35:37.762Z,70.60
2022-10-05T06:38:32.390Z,70.70
2022-10-05T06:41:43.392Z,70.80
2022-10-05T06:44:31.208Z,70.80
2022-10-05T06:47:10.917Z,70.60
2022-10-05T06:49:49.857Z,70.60
2022-10-05T06:52:49.611Z,70.90
2022-10-05T06:55:38.853Z,71.20
2022-10-05T06:58:31.122Z,70.80
2022-10-05T07:01:43.078Z,70.90
2022-10-05T07:04:24.792Z,71.50
2022-10-05T07:07:03.239Z,70.70
2022-10-05T07:10:06.203Z,70.70
2022-10-05T07:12:51.309Z,71.40
2022-10-05T07:15:45.441Z,70.90
2022-10-05T07:18:53.140Z,71.80
2022-10-05T07:21:46.192Z,71.60
2022-10-05T07:24:36.733Z,71.40
2022-10-05T07:27:14.705Z,71.60
2022-10-05T07:30:07.031Z,72.00
2022-10-05T07:32:44.868Z,72.30
2022-10-05T07:35:57.795Z,71.80
2022-10-05T07:38:46.979Z,71.80
2022-10-05T07:41:40.363Z,72.20
2022-10-05T07:44:43.970Z,72.60
2022-10-05T07:47:49.962Z,72.20
2022-10-05T07:50:22.863Z,73.00
2022-10-05T07:52:58.532Z,72.40
2022-10-05T07:55:52.014Z,72.80
2022-10-05T07:58:19.085Z,73.90
2022-10-05T08:01:13.218Z,72.90
2022-10-05T08:03:54.242Z,73.80
2022-10-05T08:06:27.194Z,73.50
2022-10-05T08:09:19.779Z,73.00
2022-10-05T08:12:26.934Z,73.30
2022-10-05T08:15:03.359Z,73.40
2022-10-05T08:18:21.641Z,72.60
2022-10-05T08:20:57.392Z,73.30
2022-10-05T08:23:42.963Z,72.70
2022-10-05T08:26:31.003Z,72.50
2022-10-05T08:29:18.539Z,72.50
2022-10-05T08:31:50.113Z,72.30
2022-10-05T08:34:27.717Z,72.20
2022-10-05T08:37:08.758Z,72.10
2022-10-05T08:40:19.176Z,71.90
2022-10-05T08:43:04.541Z,72.00
2022-10-05T08:45:55.940Z,71.60
2022-10-05T08:49:00.015Z,71.60
2022-10-05T08:51:53.901Z,71.70
2022-10-05T08:54:42.308Z,71.90
2022-10-05T08:57:31.269Z,71.70
2022-10-05T09:00:28.299Z,71.40
2022-10-05T09:03:49.447Z,71.30
2022-10-05T09:06:56.611Z,70.50
2022-10-05T09:09:57.166Z,70.30
2022-10-05T09:12:53.703Z,70.00
2022-10-05T09:15:54.893Z,69.60
2022-10-05T09:18:52.276Z,69.50
2022-10-05T09:22:05.543Z,69.50
2022-10-05T09:25:24.208Z,69.20
2022-10-05T09:27:59.466Z,68.90
2022-10-05T09:30:57.172Z,68.90
2022-10-05T09:33:54.070Z,68.50
2022-10-05T09:36:48.247Z,68.60
2022-10-05T09:39:51.437Z,68.10
2022-10-05T09:42:46.071Z,68.10
2022-10-05T09:45:44.417Z,67.90
2022-10-05T09:48:48.317Z,67.90
2022-10-05T09:51:49.815Z,67.40
2022-10-05T09:54:37.915Z,67.70
2022-10-05T09:58:08.203Z,66.90
2022-10-05T10:01:09.115Z,66.70
2022-10-05T10:03:56.798Z,66.50
2022-10-05T10:07:03.673Z,66.90
2022-10-05T10:09:56.195Z,65.60
2022-10-05T10:13:06.712Z,65.00
2022-10-05T10:15:46.086Z,65.40
2022-10-05T10:18:26.368Z,66.00
2022-10-05T10:21:12.033Z,65.80
2022-10-05T10:24:08.391Z,64.60
2022-10-05T10:27:08.781Z,64.70
2022-10-05T10:30:27.607Z,64.40
2022-10-05T10:33:41.694Z,63.50
2022-10-05T10:36:45.923Z,63.40
2022-10-05T10:39:56.980Z,63.40
2022-10-05T10:42:42.231Z,63.30
2022-10-05T10:45:39.795Z,63.10
2022-10-05T10:48:09.466Z,62.60
2022-10-05T10:51:04.806Z,63.70
2022-10-05T10:53:57.581Z,62.80
2022-10-05T10:57:06.623Z,62.90
2022-10-05T10:59:47.600Z,62.40
2022-10-05T11:02:27.868Z,63.40
2022-10-05T11:05:23.218Z,63.10
2022-10-05T11:08:32.337Z,63.10
2022-10-05T11:11:17.955Z,62.20
2022-10-05T11:14:22.163Z,62.20
2022-10-05T11:17:04.181Z,62.60
2022-10-05T11:20:02.903Z,62.90
2022-10-05T11:22:54.080Z,62.50
2022-10-05T11:25:46.014Z,62.00
2022-10-05T11:28:36.473Z,61.90
2022-10-05T11:31:47.811Z,62.80
2022-10-05T11:34:55.353Z,61.40
2022-10-05T11:38:08.091Z,61.50
2022-10-05T11:41:08.712Z,61.40
2022-10-05T11:44:28.961Z,61.70
2022-10-05T11:47:17.845Z,61.80
2022-10-05T11:50:22.119Z,61.00
2022-10-05T11:53:03.942Z,61.20
2022-10-05T11:56:04.326Z,61.30
2022-10-05T11:58:43.961Z,61.30
2022-10-05T12:01:56.257Z,61.30
2022-10-05T12:05:02.129Z,60.90
2022-10-05T12:08:01.467Z,60.90
2022-10-05T12:11:16.919Z,61.00
2022-10-05T12:13:58.163Z,61.20
2022-10-05T12:16:39.172Z,61.10
2022-10-05T12:19:29.808Z,61.30
2022-10-05T12:22:22.179Z,60.50
2022-10-05T12:25:22.079Z,60.80
2022-10-05T12:27:54.890Z,60.40
2022-10-05T12:30:54.817Z,61.20
2022-10-05T12:33:33.131Z,61.00
2022-10-05T12:36:15.517Z,61.00
2022-10-05T12:38:51.059Z,60.60
2022-10-05T12:41:45.754Z,61.00
2022-10-05T12:44:22.088Z,60.90
2022-10-05T12:47:23.834Z,60.20
2022-10-05T12:50:12.091Z,60.50
2022-10-05T12:52:56.221Z,60.80
2022-10-05T12:55:57.070Z,60.00
2022-10-05T12:58:35.986Z,60.20
2022-10-05T13:01:55.667Z,60.50
2022-10-05T13:04:51.271Z,60.10
2022-10-05T13:07:38.666Z,60.60
2022-10-05T13:10:48.674Z,60.60
2022-10-05T13:13:44.640Z,60.00
2022-10-05T13:16:33.216Z,60.40
2022-10-05T13:19:30.917Z,60.20
2022-10-05T13:22:18.181Z,60.60
2022-10-05T13:25:12.916Z,60.50
2022-10-05T13:28:11.979Z,60.30
2022-10-05T13:30:42.219Z,60.20
2022-10-05T13:33:47.721Z,60.40
2022-10-05T13:36:45.503Z,60.00
2022-10-05T13:39:38.644Z,59.70
2022-10-05T13:42:43.010Z,59.90
2022-10-05T13:45:24.818Z,59.90
2022-10-05T13:48:22.430Z,59.90
2022-10-05T13:51:08.997Z,59.60
2022-10-05T13:53:50.145Z,59.70
2022-10-05T13:56:43.481Z,59.70
2022-10-05T13:59:49.367Z,59.70
2022-10-05T14:02:29.805Z,59.50
2022-10-05T14:05:18.994Z,60.00
2022-10-05T14:07:58.728Z,60.00
2022-10-05T14:10:44.693Z,59.80
2022-10-05T14:13:47.110Z,59.50
2022-10-05T14:16:14.111Z,59.40
2022-10-05T14:19:11.399Z,59.90
2022-10-05T14:22:05.379Z,59.80
2022-10-05T14:24:45.426Z,59.60
2022-10-05T14:27:27.961Z,60.00
2022-10-05T14:30:06.836Z,59.90
2022-10-05T14:32:52.319Z,60.20
2022-10-05T14:35:22.448Z,60.00
2022-10-05T14:38:02.906Z,60.20
2022-10-05T14:40:36.677Z,59.90
2022-10-05T14:43:15.864Z,60.20
2022-10-05T14:45:57.864Z,59.90
2022-10-05T14:48:29.202Z,59.90
2022-10-05T14:51:02.285Z,60.30
2022-10-05T14:54:01.825Z,60.50
2022-10-05T14:56:58.203Z,60.20
2022-10-05T15:00:00.038Z,59.90
2022-10-05T15:02:52.552Z,60.00
2022-10-05T15:05:35.902Z,59.90
2022-10-05T15:08:11.868Z,60.00
2022-10-05T15:11:11.718Z,59.90
2022-10-05T15:13:44.117Z,59.60
2022-10-05T15:16:28.564Z,60.00
2022-10-05T15:19:08.338Z,59.80
2022-10-05T15:21:53.292Z,59.80
2022-10-05T15:24:26.478Z,59.40
2022-10-05T15:27:01.632Z,59.40
2022-10-05T15:29:52.426Z,59.00
2022-10-05T15:32:41.747Z,58.50
2022-10-05T15:35:30.580Z,58.90
2022-10-05T15:38:25.829Z,58.70
2022-10-05T15:41:24.934Z,58.60
2022-10-05T15:44:24.217Z,58.40
2022-10-05T15:47:06.454Z,58.30
2022-10-05T15:50:07.289Z,58.50
2022-10-05T15:53:03.481Z,58.30
2022-10-05T15:56:13.383Z,58.60
2022-10-05T15:59:18.562Z,58.60
2022-10-05T16:01:55.720Z,58.70
2022-10-05T16:04:41.930Z,58.90
2022-10-05T16:07:37.628Z,59.00
2022-10-05T16:10:23.484Z,59.10
2022-10-05T16:13:22.172Z,59.10
2022-10-05T16:16:21.094Z,59.10
2022-10-05T16:19:15.951Z,59.30
2022-10-05T16:22:07.113Z,59.50
2022-10-05T16:25:07.573Z,59.50
2022-10-05T16:27:37.284Z,59.70
2022-10-05T16:30:12.743Z,59.60
2022-10-05T16:33:08.907Z,59.90
2022-10-05T16:35:57.190Z,60.20
2022-10-05T16:39:11.997Z,60.40
2022-10-05T16:42:00.669Z,60.50
2022-10-05T16:44:53.617Z,60.30
2022-10-05T16:47:57.371Z,60.80
2022-10-05T16:50:49.585Z,60.80
2022-10-05T16:53:29.055Z,61.00
2022-10-05T16:56:04.912Z,61.10
2022-10-05T16:58:43.849Z,60.90
2022-10-05T17:01:56.306Z,61.70
2022-10-05T17:04:45.226Z,62.00
2022-10-05T17:07:24.094Z,61.50
2022-10-05T17:10:16.086Z,61.10
2022-10-05T17:13:16.388Z,61.60
2022-10-05T17:16:26.805Z,62.30
2022-10-05T17:19:27.871Z,62.30
2022-10-05T17:22:59.193Z,63.00
2022-10-05T17:25:45.536Z,63.00
2022-10-05T17:28:24.613Z,62.20
2022-10-05T17:31:17.683Z,62.30
2022-10-05T17:33:59.866Z,62.30
2022-10-05T17:36:43.000Z,63.30
2022-10-05T17:39:44.000Z,63.00
2022-10-05T17:42:26.499Z,62.70
2022-10-05T17:45:20.916Z,63.10
2022-10-05T17:48:25.117Z,63.00
2022-10-05T17:51:11.349Z,63.30
2022-10-05T17:54:03.157Z,63.10
2022-10-05T17:56:36.631Z,63.60
2022-10-05T17:59:06.694Z,63.30
2022-10-05T18:01:39.810Z,63.30
2022-10-05T18:04:12.933Z,63.60
2022-10-05T18:07:00.041Z,63.70
2022-10-05T18:09:27.828Z,63.80
2022-10-05T18:12:16.622Z,63.70
2022-10-05T18:15:08.439Z,63.80
2022-10-05T18:17:46.495Z,64.70
2022-10-05T18:20:32.687Z,64.10
2022-10-05T18:23:09.815Z,64.80
2022-10-05T18:26:06.458Z,64.90
2022-10-05T18:28:49.225Z,65.10
2022-10-05T18:31:40.132Z,64.60
2022-10-05T18:35:02.067Z,65.20
2022-10-05T18:37:43.807Z,64.70
2022-10-05T18:40:41.201Z,64.80
2022-10-05T18:43:40.985Z,65.20
2022-10-05T18:46:22.374Z,64.70
2022-10-05T18:49:42.531Z,65.00
2022-10-05T18:52:36.485Z,66.00
2022-10-05T18:55:28.285Z,65.20
2022-10-05T18:58:35.915Z,65.60
2022-10-05T19:01:38.307Z,66.20
2022-10-05T19:04:14.181Z,65.50
2022-10-05T19:07:05.104Z,65.30
2022-10-05T19:09:56.248Z,65.90
2022-10-05T19:12:32.717Z,65.40
2022-10-05T19:15:25.244Z,65.80
2022-10-05T19:18:25.940Z,66.30
2022-10-05T19:21:22.846Z,66.20
2022-10-05T19:24:33.881Z,65.80
2022-10-05T19:27:27.576Z,66.20
2022-10-05T19:30:19.514Z,65.90
2022-10-05T19:33:06.366Z,66.40
2022-10-05T19:37:01.079Z,65.60
2022-10-05T19:39:50.816Z,67.00
2022-10-05T19:43:03.761Z,66.10
2022-10-05T19:45:55.042Z,66.90
2022-10-05T19:48:27.955Z,66.20
2022-10-05T19:51:01.077Z,66.20
2022-10-05T19:53:37.972Z,66.30
2022-10-05T19:56:25.294Z,66.60
2022-10-05T19:58:57.671Z,67.50
2022-10-05T20:01:40.816Z,66.70
2022-10-05T20:04:10.635Z,66.70
2022-10-05T20:06:39.696Z,66.60
2022-10-05T20:09:21.867Z,66.60
2022-10-05T20:11:51.725Z,67.50
2022-10-05T20:14:31.554Z,67.00
2022-10-05T20:17:44.441Z,67.50
2022-10-05T20:20:34.536Z,68.00
2022-10-05T20:23:22.687Z,67.80
2022-10-05T20:26:09.457Z,67.60
2022-10-05T20:28:37.001Z,67.00
2022-10-05T20:31:08.178Z,67.00
2022-10-05T20:33:35.318Z,67.10
2022-10-05T20:36:03.828Z,67.10
2022-10-05T20:38:31.813Z,67.30
2022-10-05T20:40:59.150Z,67.40
2022-10-05T20:43:26.241Z,67.50
2022-10-05T20:45:53.902Z,67.50
2022-10-05T20:48:21.066Z,67.50
2022-10-05T20:50:48.320Z,67.60
2022-10-05T20:53:15.470Z,67.60
2022-10-05T20:55:43.159Z,67.60
2022-10-05T20:58:11.218Z,67.60
2022-10-05T21:00:57.236Z,67.60
2022-10-05T21:03:24.519Z,67.60
2022-10-05T21:05:51.880Z,67.70
2022-10-05T21:08:19.077Z,67.70
2022-10-05T21:10:46.177Z,67.80
2022-10-05T21:13:13.233Z,67.90
2022-10-05T21:15:40.498Z,68.00
2022-10-05T21:18:07.568Z,68.00
2022-10-05T21:20:34.782Z,68.00
2022-10-05T21:23:01.975Z,68.00
2022-10-05T21:25:29.339Z,68.00
2022-10-05T21:27:56.421Z,68.10
2022-10-05T21:30:23.610Z,68.20
2022-10-05T21:32:50.665Z,68.10
2022-10-05T21:35:17.992Z,68.10
2022-10-05T21:37:45.052Z,68.00
2022-10-05T21:40:12.256Z,67.90
2022-10-05T21:42:39.328Z,67.90
2022-10-05T21:45:07.511Z,68.00
2022-10-05T21:47:34.832Z,68.00
2022-10-05T21:50:03.905Z,68.00
2022-10-05T21:52:31.300Z,68.10
2022-10-05T21:54:58.905Z,68.10
2022-10-05T21:57:26.036Z,68.20
2022-10-05T21:59:53.298Z,68.30
2022-10-05T22:02:20.524Z,68.50
2022-10-05T22:04:47.691Z,68.50
2022-10-05T22:07:20.187Z,68.50
2022-10-05T22:09:51.494Z,68.60
2022-10-05T22:12:20.090Z,68.70
2022-10-05T22:14:47.976Z,68.90
2022-10-05T22:17:23.798Z,69.00
2022-10-05T22:19:51.629Z,69.00
2022-10-05T22:22:18.709Z,69.00
2022-10-05T22:24:46.039Z,69.10
2022-10-05T22:27:13.771Z,69.00
2022-10-05T22:29:41.900Z,69.00
2022-10-05T22:32:09.266Z,69.00
2022-10-05T22:34:36.495Z,69.10
2022-10-05T22:37:04.853Z,69.30
2022-10-05T22:39:32.479Z,69.30
2022-10-05T22:41:59.658Z,69.40
2022-10-05T22:44:26.822Z,69.30
2022-10-05T22:46:53.820Z,69.30
2022-10-05T22:49:20.975Z,69.30
2022-10-05T22:51:49.340Z,69.30
2022-10-05T22:54:16.823Z,69.40
2022-10-05T22:56:44.593Z,69.30
2022-10-05T22:59:11.921Z,69.20
2022-10-05T23:01:38.961Z,69.40
2022-10-05T23:04:07.986Z,69.50
2022-10-05T23:06:35.189Z,69.50
2022-10-05T23:09:02.310Z,69.60
2022-10-05T23:11:30.214Z,69.50
2022-10-05T23:13:57.676Z,69.50
2022-10-05T23:16:27.860Z,69.50
2022-10-05T23:18:56.117Z,69.60
2022-10-05T23:21:27.285Z,69.70
2022-10-05T23:23:55.021Z,69.70
2022-10-05T23:26:24.874Z,69.60
2022-10-05T23:28:52.346Z,69.70
2022-10-05T23:31:26.067Z,69.70
2022-10-05T23:33:54.208Z,69.60
2022-10-05T23:36:24.931Z,69.60
2022-10-05T23:38:52.588Z,69.70
2022-10-05T23:41:20.480Z,69.70
2022-10-05T23:43:48.200Z,69.80
2022-10-05T23:46:16.191Z,69.80
2022-10-05T23:48:43.910Z,69.90
2022-10-05T23:51:13.336Z,69.90
2022-10-05T23:53:40.641Z,69.80
2022-10-05T23:56:08.324Z,69.70
2022-10-05T23:58:35.482Z,69.60
